FDX3609 KEWR-KIND
Flight info
| Callsign | FDX3609 |
|---|---|
| Flight time | N/A |
| Altitude | 38000 |
| Route | ZIMMZ Q42 HIDON RINTE SNKPT2 |
| Aircraft | MD11/H-SDE1E2E3FGHIJ2J3J4J5M1RWXY/LB1D1 |
Departure
| Time | 2026-05-01 12:28 |
|---|---|
| Airport | Newark Liberty International Airport (KEWR) |
Arrival
| Time | N/A |
|---|---|
| Airport | Indianapolis International Airport (KIND) |
| Time | Latitude | Longitude | Altitude | Speed | Heading |
|---|---|---|---|---|---|
| 2026-05-01 12:13 | 40.67955 | -74.18081 | 17 ft | 0 kts | 115° |
| 2026-05-01 12:17 | 40.67958 | -74.18089 | 17 ft | 2 kts | 109° |
| 2026-05-01 12:17 | 40.67961 | -74.18108 | 17 ft | 2 kts | 88° |
| 2026-05-01 12:17 | 40.67958 | -74.18127 | 17 ft | 2 kts | 71° |
| 2026-05-01 12:18 | 40.67952 | -74.18144 | 17 ft | 2 kts | 53° |
| 2026-05-01 12:18 | 40.67942 | -74.18158 | 17 ft | 2 kts | 36° |
| 2026-05-01 12:18 | 40.67931 | -74.18166 | 17 ft | 0 kts | 24° |
| 2026-05-01 12:18 | 40.67930 | -74.18167 | 17 ft | 0 kts | 24° |
| 2026-05-01 12:20 | 40.67938 | -74.18162 | 17 ft | 4 kts | 24° |
| 2026-05-01 12:20 | 40.67987 | -74.18131 | 17 ft | 10 kts | 26° |
| 2026-05-01 12:20 | 40.68062 | -74.18084 | 17 ft | 12 kts | 25° |
| 2026-05-01 12:21 | 40.68139 | -74.18029 | 17 ft | 12 kts | 49° |
| 2026-05-01 12:21 | 40.68114 | -74.17927 | 17 ft | 12 kts | 141° |
| 2026-05-01 12:21 | 40.68063 | -74.17831 | 17 ft | 12 kts | 96° |
| 2026-05-01 12:21 | 40.68124 | -74.17735 | 17 ft | 14 kts | 27° |
| 2026-05-01 12:22 | 40.68227 | -74.17670 | 17 ft | 17 kts | 25° |
| 2026-05-01 12:22 | 40.68341 | -74.17598 | 17 ft | 17 kts | 25° |
| 2026-05-01 12:22 | 40.68459 | -74.17522 | 17 ft | 19 kts | 26° |
| 2026-05-01 12:22 | 40.68591 | -74.17439 | 17 ft | 21 kts | 25° |
| 2026-05-01 12:23 | 40.68723 | -74.17356 | 17 ft | 21 kts | 25° |
| 2026-05-01 12:23 | 40.68858 | -74.17270 | 17 ft | 21 kts | 27° |
| 2026-05-01 12:23 | 40.68991 | -74.17186 | 17 ft | 20 kts | 26° |
| 2026-05-01 12:23 | 40.69114 | -74.17108 | 17 ft | 18 kts | 26° |
| 2026-05-01 12:24 | 40.69239 | -74.17029 | 17 ft | 21 kts | 26° |
| 2026-05-01 12:24 | 40.69374 | -74.16943 | 17 ft | 21 kts | 26° |
| 2026-05-01 12:24 | 40.69502 | -74.16863 | 17 ft | 20 kts | 26° |
| 2026-05-01 12:24 | 40.69628 | -74.16782 | 17 ft | 17 kts | 25° |
| 2026-05-01 12:25 | 40.69746 | -74.16708 | 17 ft | 20 kts | 26° |
| 2026-05-01 12:25 | 40.69942 | -74.16584 | 17 ft | 7 kts | 26° |
| 2026-05-01 12:25 | 40.69983 | -74.16547 | 17 ft | 6 kts | 56° |
| 2026-05-01 12:26 | 40.69986 | -74.16479 | 17 ft | 8 kts | 108° |
| 2026-05-01 12:26 | 40.69898 | -74.16451 | 17 ft | 5 kts | 202° |
| 2026-05-01 12:26 | 40.69883 | -74.16460 | 17 ft | 0 kts | 204° |
| 2026-05-01 12:27 | 40.69797 | -74.16513 | 17 ft | 45 kts | 205° |
| 2026-05-01 12:27 | 40.68331 | -74.17456 | 39 ft | 174 kts | 210° |
| 2026-05-01 12:28 | 40.65990 | -74.18532 | 1286 ft | 195 kts | 190° |
| 2026-05-01 12:28 | 40.64629 | -74.18728 | 2155 ft | 205 kts | 189° |
| 2026-05-01 12:28 | 40.61731 | -74.19968 | 3742 ft | 211 kts | 234° |
| 2026-05-01 12:29 | 40.60943 | -74.21702 | 4346 ft | 225 kts | 255° |
| 2026-05-01 12:29 | 40.60457 | -74.23748 | 5171 ft | 240 kts | 259° |
| 2026-05-01 12:29 | 40.59624 | -74.28323 | 7423 ft | 253 kts | 271° |
| 2026-05-01 12:30 | 40.60535 | -74.32774 | 10047 ft | 250 kts | 301° |
| 2026-05-01 12:30 | 40.61573 | -74.34946 | 10750 ft | 278 kts | 304° |
| 2026-05-01 12:30 | 40.62717 | -74.37148 | 11313 ft | 307 kts | 304° |
| 2026-05-01 12:31 | 40.63977 | -74.39576 | 11800 ft | 336 kts | 303° |
| 2026-05-01 12:31 | 40.65278 | -74.42396 | 12571 ft | 356 kts | 298° |
| 2026-05-01 12:31 | 40.66419 | -74.45325 | 13599 ft | 366 kts | 295° |
| 2026-05-01 12:31 | 40.67632 | -74.48644 | 14853 ft | 374 kts | 294° |
| 2026-05-01 12:32 | 40.68830 | -74.52004 | 16135 ft | 379 kts | 293° |
| 2026-05-01 12:32 | 40.70822 | -74.58888 | 18517 ft | 387 kts | 285° |
| 2026-05-01 12:32 | 40.71570 | -74.62574 | 19696 ft | 391 kts | 282° |
| 2026-05-01 12:33 | 40.72242 | -74.66332 | 20837 ft | 396 kts | 281° |
| 2026-05-01 12:33 | 40.72902 | -74.70166 | 22043 ft | 400 kts | 281° |
| 2026-05-01 12:33 | 40.73560 | -74.73990 | 23128 ft | 406 kts | 281° |
| 2026-05-01 12:33 | 40.74238 | -74.77840 | 24166 ft | 411 kts | 281° |
| 2026-05-01 12:34 | 40.74926 | -74.81743 | 25133 ft | 415 kts | 281° |
| 2026-05-01 12:34 | 40.75610 | -74.85664 | 26077 ft | 419 kts | 281° |
| 2026-05-01 12:34 | 40.76305 | -74.89649 | 26988 ft | 424 kts | 281° |
| 2026-05-01 12:34 | 40.77007 | -74.93650 | 27855 ft | 428 kts | 281° |
| 2026-05-01 12:35 | 40.77725 | -74.97721 | 28874 ft | 428 kts | 281° |
| 2026-05-01 12:35 | 40.78422 | -75.01680 | 29966 ft | 425 kts | 281° |
| 2026-05-01 12:35 | 40.79122 | -75.05687 | 30989 ft | 420 kts | 280° |
| 2026-05-01 12:35 | 40.79581 | -75.09802 | 31743 ft | 418 kts | 274° |
| 2026-05-01 12:36 | 40.79684 | -75.13841 | 32441 ft | 418 kts | 269° |
| 2026-05-01 12:36 | 40.79438 | -75.17941 | 33071 ft | 419 kts | 263° |
| 2026-05-01 12:36 | 40.78930 | -75.21924 | 33658 ft | 421 kts | 261° |
| 2026-05-01 12:36 | 40.78325 | -75.25975 | 34332 ft | 421 kts | 260° |
| 2026-05-01 12:37 | 40.77708 | -75.30019 | 34965 ft | 422 kts | 260° |
| 2026-05-01 12:37 | 40.77037 | -75.34126 | 35530 ft | 423 kts | 257° |
| 2026-05-01 12:37 | 40.76143 | -75.38145 | 36044 ft | 425 kts | 253° |
| 2026-05-01 12:37 | 40.75019 | -75.42042 | 36520 ft | 428 kts | 249° |
| 2026-05-01 12:38 | 40.73677 | -75.45879 | 36979 ft | 429 kts | 247° |
| 2026-05-01 12:38 | 40.72250 | -75.49692 | 37440 ft | 431 kts | 246° |
| 2026-05-01 12:38 | 40.70872 | -75.53329 | 37820 ft | 431 kts | 246° |
| 2026-05-01 12:38 | 40.69435 | -75.57156 | 37937 ft | 430 kts | 246° |
| 2026-05-01 12:39 | 40.66585 | -75.64758 | 37956 ft | 428 kts | 247° |